Time;durP1;ratioP1;P1;durP2;ratioP2;P2;SDS_P1;SDS_P2;PMS_P1;PMS_P2;Temp;Humidity;BMP_temperature;BMP_pressure;BME280_temperature;BME280_humidity;BME280_pressure;Samples;Min_cycle;Max_cycle;Signal;HPM_P1;HPM_P2
2023/08/08 00:02:45;;;;;;;3.85;0.90;;;;;;;;;;10147845;28;20428;-79
2023/08/08 00:07:36;;;;;;;1.40;1.10;;;;;;;;;;10149896;28;20078;-77
2023/08/08 00:12:28;;;;;;;1.08;0.98;;;;;;;;;;10146985;28;20094;-77
2023/08/08 00:17:20;;;;;;;0.75;0.73;;;;;;;;;;10158912;28;20132;-77
2023/08/08 00:22:12;;;;;;;0.90;0.80;;;;;;;;;;10156450;28;20048;-77
2023/08/08 00:27:04;;;;;;;1.17;1.00;;;;;;;;;;10155761;28;20045;-78
2023/08/08 00:31:56;;;;;;;4.05;1.00;;;;;;;;;;10153171;28;20048;-77
2023/08/08 00:36:48;;;;;;;1.10;1.00;;;;;;;;;;10184390;28;20433;-78
2023/08/08 00:41:40;;;;;;;2.92;0.93;;;;;;;;;;10176553;28;20564;-78
2023/08/08 00:46:32;;;;;;;0.80;0.77;;;;;;;;;;10174243;28;20048;-77
2023/08/08 00:51:24;;;;;;;1.00;0.60;;;;;;;;;;10172144;28;20044;-78
2023/08/08 00:56:18;;;;;;;1.00;0.80;;;;;;;;;;10160802;28;20134;-77
2023/08/08 01:01:10;;;;;;;0.93;0.90;;;;;;;;;;10168587;28;20049;-77
2023/08/08 01:06:11;;;;;;;1.10;1.00;;;;;;;;;;10145922;28;20054;-77
2023/08/08 01:11:03;;;;;;;0.95;0.90;;;;;;;;;;10170198;28;20500;-77
2023/08/08 01:15:55;;;;;;;0.88;0.85;;;;;;;;;;10162395;28;20052;-76
2023/08/08 01:20:48;;;;;;;1.23;0.93;;;;;;;;;;10149298;28;20048;-77
2023/08/08 01:25:40;;;;;;;0.93;0.90;;;;;;;;;;10168998;28;20401;-79
2023/08/08 01:30:32;;;;;;;1.27;0.90;;;;;;;;;;10169568;28;20392;-77
2023/08/08 01:35:28;;;;;;;1.20;0.70;;;;;;;;;;10175205;28;20068;-77
2023/08/08 01:40:20;;;;;;;1.05;0.98;;;;;;;;;;10170232;28;20354;-77
2023/08/08 01:45:13;;;;;;;1.15;0.82;;;;;;;;;;10157991;28;20041;-78
2023/08/08 01:50:06;;;;;;;1.25;0.90;;;;;;;;;;10156378;28;20488;-78
2023/08/08 01:54:58;;;;;;;1.50;1.13;;;;;;;;;;10166520;28;20044;-79
2023/08/08 01:59:49;;;;;;;0.70;0.70;;;;;;;;;;10175917;28;20135;-78
2023/08/08 02:04:41;;;;;;;1.10;0.80;;;;;;;;;;10144098;28;21291;-79
2023/08/08 02:09:33;;;;;;;1.00;0.90;;;;;;;;;;10145566;28;20467;-79
2023/08/08 02:14:25;;;;;;;1.27;0.85;;;;;;;;;;10147237;28;20082;-79
2023/08/08 02:19:18;;;;;;;1.40;1.13;;;;;;;;;;10146915;28;20123;-79
2023/08/08 02:24:10;;;;;;;1.08;1.00;;;;;;;;;;10146495;28;20436;-78
2023/08/08 02:29:01;;;;;;;0.85;0.85;;;;;;;;;;10143451;28;20087;-78
2023/08/08 02:33:54;;;;;;;0.95;0.90;;;;;;;;;;10145046;28;20036;-78
2023/08/08 02:38:46;;;;;;;1.08;0.98;;;;;;;;;;10156745;28;20040;-79
2023/08/08 02:43:38;;;;;;;0.82;0.82;;;;;;;;;;10187006;28;20052;-77
2023/08/08 02:48:31;;;;;;;0.70;0.60;;;;;;;;;;10186216;28;20048;-80
2023/08/08 02:53:23;;;;;;;1.15;1.02;;;;;;;;;;10150078;28;20041;-78
2023/08/08 02:58:15;;;;;;;2.28;1.00;;;;;;;;;;10143733;28;20040;-80
2023/08/08 03:03:08;;;;;;;0.93;0.88;;;;;;;;;;10142657;28;20807;-78
2023/08/08 03:08:01;;;;;;;0.85;0.80;;;;;;;;;;10150833;28;20347;-79
2023/08/08 03:12:53;;;;;;;0.98;0.88;;;;;;;;;;10143288;28;20348;-79
2023/08/08 03:17:46;;;;;;;0.95;0.70;;;;;;;;;;10166900;28;20474;-79
2023/08/08 03:22:39;;;;;;;1.08;0.98;;;;;;;;;;10158574;28;20139;-79
2023/08/08 03:27:32;;;;;;;1.05;0.95;;;;;;;;;;10141259;28;20478;-79
2023/08/08 03:32:24;;;;;;;1.40;1.10;;;;;;;;;;10143738;28;20215;-79
2023/08/08 03:37:16;;;;;;;1.77;1.10;;;;;;;;;;10143925;28;20067;-78
2023/08/08 03:42:08;;;;;;;1.00;0.90;;;;;;;;;;10205725;28;20051;-79
2023/08/08 03:47:02;;;;;;;1.13;1.00;;;;;;;;;;10143516;28;20090;-79
2023/08/08 03:52:10;;;;;;;1.55;1.10;;;;;;;;;;10155770;28;20040;-79
2023/08/08 03:57:03;;;;;;;0.80;0.80;;;;;;;;;;10170916;28;20447;-77
2023/08/08 04:01:55;;;;;;;0.80;0.80;;;;;;;;;;10141160;28;20462;-78
2023/08/08 04:06:47;;;;;;;0.88;0.85;;;;;;;;;;10153864;28;20052;-79
2023/08/08 04:11:38;;;;;;;2.78;1.30;;;;;;;;;;10142468;28;20446;-79
2023/08/08 04:16:30;;;;;;;0.88;0.88;;;;;;;;;;10142395;28;20493;-78
2023/08/08 04:21:23;;;;;;;1.20;1.10;;;;;;;;;;10142037;28;20487;-78
2023/08/08 04:26:15;;;;;;;1.65;1.40;;;;;;;;;;10145451;28;20640;-80
2023/08/08 04:31:07;;;;;;;2.92;0.98;;;;;;;;;;10142087;28;20048;-77
2023/08/08 04:35:59;;;;;;;0.95;0.93;;;;;;;;;;10143259;28;20045;-78
2023/08/08 04:40:51;;;;;;;1.05;0.90;;;;;;;;;;10141735;28;20110;-79
2023/08/08 04:45:43;;;;;;;1.05;0.95;;;;;;;;;;10143429;28;20053;-79
2023/08/08 04:50:35;;;;;;;3.80;1.05;;;;;;;;;;10146630;28;20089;-79
2023/08/08 04:55:27;;;;;;;1.10;1.00;;;;;;;;;;10141700;28;20080;-79
2023/08/08 05:00:20;;;;;;;2.88;1.05;;;;;;;;;;10167432;28;20058;-78
2023/08/08 05:05:11;;;;;;;0.90;0.90;;;;;;;;;;10140508;28;20079;-78
2023/08/08 05:10:04;;;;;;;1.35;1.00;;;;;;;;;;10140455;28;20036;-78
2023/08/08 05:14:56;;;;;;;2.63;0.95;;;;;;;;;;10145797;28;20174;-78
2023/08/08 05:19:48;;;;;;;11.57;1.30;;;;;;;;;;10180481;28;20517;-79
2023/08/08 05:24:40;;;;;;;1.75;1.00;;;;;;;;;;10160015;28;20455;-77
2023/08/08 05:29:32;;;;;;;1.10;1.00;;;;;;;;;;10143697;28;20040;-77
2023/08/08 05:34:24;;;;;;;1.50;1.08;;;;;;;;;;10144904;28;20071;-77
2023/08/08 05:39:16;;;;;;;0.80;0.80;;;;;;;;;;10146681;28;20045;-77
2023/08/08 05:44:08;;;;;;;1.58;1.20;;;;;;;;;;10149662;28;20067;-77
2023/08/08 05:49:01;;;;;;;0.90;0.90;;;;;;;;;;10142610;28;20048;-77
2023/08/08 05:53:53;;;;;;;1.42;1.20;;;;;;;;;;10148716;28;20036;-76
2023/08/08 05:58:45;;;;;;;1.63;1.10;;;;;;;;;;10160168;28;20071;-76
2023/08/08 06:03:37;;;;;;;1.42;1.08;;;;;;;;;;10171154;28;20105;-76
2023/08/08 06:08:29;;;;;;;1.23;1.10;;;;;;;;;;10177954;28;20041;-69
2023/08/08 06:13:21;;;;;;;2.80;1.35;;;;;;;;;;10143521;28;20354;-73
2023/08/08 06:18:13;;;;;;;1.67;1.25;;;;;;;;;;10144214;28;20079;-73
2023/08/08 06:23:05;;;;;;;3.90;1.90;;;;;;;;;;10155572;28;20052;-72
2023/08/08 06:27:57;;;;;;;1.58;1.30;;;;;;;;;;10153950;28;20044;-72
2023/08/08 06:32:49;;;;;;;5.03;1.45;;;;;;;;;;10143068;28;20139;-73
2023/08/08 06:37:41;;;;;;;2.08;1.50;;;;;;;;;;10147425;28;20050;-72
2023/08/08 06:42:33;;;;;;;5.55;2.13;;;;;;;;;;10178348;28;20052;-71
2023/08/08 06:47:25;;;;;;;2.90;2.00;;;;;;;;;;10177749;28;20075;-73
2023/08/08 06:52:17;;;;;;;3.25;1.75;;;;;;;;;;10184217;28;20044;-73
2023/08/08 06:57:09;;;;;;;7.05;3.15;;;;;;;;;;10167348;28;20109;-73
2023/08/08 07:02:01;;;;;;;4.95;1.58;;;;;;;;;;10141792;28;20102;-70
2023/08/08 07:06:53;;;;;;;1.65;1.20;;;;;;;;;;10141815;28;20470;-70
2023/08/08 07:11:44;;;;;;;4.28;1.30;;;;;;;;;;10141105;28;20044;-73
2023/08/08 07:16:36;;;;;;;1.55;1.20;;;;;;;;;;10141980;28;20094;-71
2023/08/08 07:21:29;;;;;;;5.03;1.92;;;;;;;;;;10142629;28;20048;-73
2023/08/08 07:26:22;;;;;;;1.58;1.38;;;;;;;;;;10143077;28;20079;-73
2023/08/08 07:31:13;;;;;;;1.40;1.30;;;;;;;;;;10141679;28;20049;-72
2023/08/08 07:36:05;;;;;;;5.32;1.30;;;;;;;;;;10156735;28;20390;-72
2023/08/08 07:40:57;;;;;;;3.10;1.40;;;;;;;;;;10181254;28;20068;-73
2023/08/08 07:45:49;;;;;;;4.95;1.20;;;;;;;;;;10181118;28;20051;-73
2023/08/08 07:50:41;;;;;;;3.00;1.25;;;;;;;;;;10149417;28;20041;-72
2023/08/08 07:55:33;;;;;;;2.63;1.48;;;;;;;;;;10155092;28;20135;-73
2023/08/08 08:00:26;;;;;;;6.18;0.93;;;;;;;;;;10151984;28;20067;-73
2023/08/08 08:05:18;;;;;;;0.95;0.80;;;;;;;;;;10156126;28;20051;-73
2023/08/08 08:10:13;;;;;;;5.28;1.20;;;;;;;;;;10158268;28;20045;-73
2023/08/08 08:15:05;;;;;;;3.25;1.38;;;;;;;;;;10140046;28;20438;-73
2023/08/08 08:19:57;;;;;;;14.68;2.38;;;;;;;;;;10140811;28;20383;-73
2023/08/08 08:24:49;;;;;;;3.72;1.70;;;;;;;;;;10140632;28;20132;-72
2023/08/08 08:29:41;;;;;;;1.92;1.08;;;;;;;;;;10138303;28;20139;-73
2023/08/08 08:34:32;;;;;;;3.95;1.30;;;;;;;;;;10141722;28;20045;-73
2023/08/08 08:39:24;;;;;;;2.47;1.10;;;;;;;;;;10140952;28;20364;-73
2023/08/08 08:44:16;;;;;;;1.73;1.13;;;;;;;;;;10141296;28;20044;-73
2023/08/08 08:49:09;;;;;;;1.70;1.55;;;;;;;;;;10140693;28;20099;-71
2023/08/08 08:54:01;;;;;;;1.77;1.25;;;;;;;;;;10145284;28;20036;-73
2023/08/08 08:58:53;;;;;;;2.85;1.23;;;;;;;;;;10181834;28;20048;-72
2023/08/08 09:03:45;;;;;;;1.42;1.02;;;;;;;;;;10146100;28;20055;-72
2023/08/08 09:08:37;;;;;;;2.20;1.15;;;;;;;;;;10145441;28;20068;-70
2023/08/08 09:13:39;;;;;;;8.13;1.85;;;;;;;;;;10146457;28;20529;-71
2023/08/08 09:18:32;;;;;;;2.63;1.40;;;;;;;;;;10146273;28;20127;-73
2023/08/08 09:23:24;;;;;;;1.35;1.17;;;;;;;;;;10147538;28;20072;-72
2023/08/08 09:28:16;;;;;;;2.10;1.05;;;;;;;;;;10146014;28;20394;-72
2023/08/08 09:33:08;;;;;;;3.38;1.35;;;;;;;;;;10147725;28;20132;-72
2023/08/08 09:38:00;;;;;;;5.22;2.42;;;;;;;;;;10184531;28;20481;-72
2023/08/08 09:42:55;;;;;;;3.13;1.25;;;;;;;;;;10157409;28;20085;-72
2023/08/08 09:47:49;;;;;;;2.63;1.35;;;;;;;;;;10186103;28;20098;-72
2023/08/08 09:52:42;;;;;;;3.78;1.38;;;;;;;;;;10172664;28;20048;-71
2023/08/08 09:57:34;;;;;;;4.38;1.13;;;;;;;;;;10142258;28;20048;-72
2023/08/08 10:02:27;;;;;;;3.97;1.20;;;;;;;;;;10157733;28;20047;-73
2023/08/08 10:07:19;;;;;;;2.17;1.30;;;;;;;;;;10183411;28;20113;-71
2023/08/08 10:12:11;;;;;;;4.15;1.58;;;;;;;;;;10145796;28;20071;-71
2023/08/08 10:17:04;;;;;;;3.92;1.30;;;;;;;;;;10142121;28;20045;-72
2023/08/08 10:21:58;;;;;;;3.08;1.30;;;;;;;;;;10143591;28;20493;-73
2023/08/08 10:27:00;;;;;;;1.67;1.08;;;;;;;;;;10142829;28;20139;-73
2023/08/08 10:32:00;;;;;;;5.45;1.38;;;;;;;;;;10143094;28;20048;-69
2023/08/08 10:36:53;;;;;;;1.42;1.10;;;;;;;;;;10142563;28;20070;-71
2023/08/08 10:41:46;;;;;;;3.60;1.38;;;;;;;;;;10147550;28;20045;-72
2023/08/08 10:46:41;;;;;;;4.15;1.35;;;;;;;;;;10162438;28;20040;-71
2023/08/08 10:51:43;;;;;;;5.93;1.30;;;;;;;;;;10167012;28;20033;-73
2023/08/08 10:56:36;;;;;;;1.75;1.10;;;;;;;;;;10162024;28;20489;-72
2023/08/08 11:01:28;;;;;;;3.10;1.58;;;;;;;;;;10146425;28;20090;-73
2023/08/08 11:06:20;;;;;;;1.77;1.35;;;;;;;;;;10147070;28;20067;-73
2023/08/08 11:11:12;;;;;;;1.77;1.33;;;;;;;;;;10152514;28;20041;-73
2023/08/08 11:16:04;;;;;;;1.65;1.10;;;;;;;;;;10170422;28;20447;-72
2023/08/08 11:20:56;;;;;;;3.80;1.33;;;;;;;;;;10173488;28;20067;-74
2023/08/08 11:26:08;;;;;;;1.30;0.93;;;;;;;;;;10147518;28;20055;-72
2023/08/08 11:31:03;;;;;;;1.15;0.95;;;;;;;;;;10157038;28;20041;-74
2023/08/08 11:35:56;;;;;;;1.33;0.90;;;;;;;;;;10160945;28;20113;-73
2023/08/08 11:40:48;;;;;;;3.20;1.40;;;;;;;;;;10182223;28;20036;-74
2023/08/08 11:45:42;;;;;;;1.30;1.02;;;;;;;;;;10153683;28;20058;-74
2023/08/08 11:50:37;;;;;;;2.72;0.98;;;;;;;;;;10163741;28;20068;-72
2023/08/08 11:55:29;;;;;;;4.68;1.13;;;;;;;;;;10151349;28;20406;-73
2023/08/08 12:00:27;;;;;;;3.47;1.13;;;;;;;;;;10141456;28;20035;-72
2023/08/08 12:05:22;;;;;;;2.95;1.50;;;;;;;;;;10170196;28;20492;-72
2023/08/08 12:10:19;;;;;;;2.70;1.58;;;;;;;;;;10174744;28;20057;-74
2023/08/08 12:15:11;;;;;;;2.13;1.58;;;;;;;;;;10152748;28;20101;-72
2023/08/08 12:20:11;;;;;;;1.92;1.52;;;;;;;;;;10150308;28;20091;-72
2023/08/08 12:25:04;;;;;;;2.90;2.33;;;;;;;;;;10158996;28;20036;-72
2023/08/08 12:29:56;;;;;;;2.72;2.13;;;;;;;;;;10168756;28;20040;-73
2023/08/08 12:34:48;;;;;;;1.45;1.30;;;;;;;;;;10168513;28;20040;-71
2023/08/08 12:39:40;;;;;;;4.75;2.15;;;;;;;;;;10168949;28;20131;-71
2023/08/08 12:44:32;;;;;;;2.63;2.05;;;;;;;;;;10188202;28;20633;-72
2023/08/08 12:49:23;;;;;;;7.05;2.05;;;;;;;;;;10168034;28;20052;-72
2023/08/08 12:54:15;;;;;;;5.15;2.33;;;;;;;;;;10162901;28;20072;-72
2023/08/08 12:59:08;;;;;;;6.50;2.08;;;;;;;;;;10145842;28;20056;-72
2023/08/08 13:04:00;;;;;;;5.90;1.70;;;;;;;;;;10175824;28;20469;-71
2023/08/08 13:09:09;;;;;;;3.67;1.30;;;;;;;;;;10179280;28;20032;-72
2023/08/08 13:14:01;;;;;;;4.03;1.50;;;;;;;;;;10179462;28;20040;-73
2023/08/08 13:18:53;;;;;;;1.60;1.25;;;;;;;;;;10171928;28;20438;-70
2023/08/08 13:23:46;;;;;;;2.78;1.85;;;;;;;;;;10153634;28;20040;-70
2023/08/08 13:28:38;;;;;;;3.50;1.25;;;;;;;;;;10174416;28;20064;-72
2023/08/08 13:33:30;;;;;;;2.22;1.25;;;;;;;;;;10175640;28;20063;-74
2023/08/08 13:38:23;;;;;;;1.42;0.80;;;;;;;;;;10159148;28;20458;-71
2023/08/08 13:43:15;;;;;;;2.67;1.50;;;;;;;;;;10144818;28;20049;-72
2023/08/08 13:48:07;;;;;;;1.88;0.90;;;;;;;;;;10144919;28;20082;-72
2023/08/08 13:52:59;;;;;;;1.33;0.93;;;;;;;;;;10144356;28;20350;-72
2023/08/08 13:57:51;;;;;;;1.52;0.85;;;;;;;;;;10168443;28;20063;-73
2023/08/08 14:02:43;;;;;;;1.67;1.10;;;;;;;;;;10170851;28;20047;-73
2023/08/08 14:07:35;;;;;;;1.23;0.82;;;;;;;;;;10167385;28;20094;-73
2023/08/08 14:12:27;;;;;;;0.73;0.73;;;;;;;;;;10145482;28;20041;-73
2023/08/08 14:17:20;;;;;;;1.67;0.95;;;;;;;;;;10161603;28;20047;-72
2023/08/08 14:22:11;;;;;;;0.80;0.73;;;;;;;;;;10161244;28;20045;-72
2023/08/08 14:27:03;;;;;;;1.00;0.90;;;;;;;;;;10151572;28;20040;-74
2023/08/08 14:31:55;;;;;;;1.77;0.90;;;;;;;;;;10164341;28;20503;-73
2023/08/08 14:36:51;;;;;;;1.00;0.88;;;;;;;;;;10143628;28;20071;-73
2023/08/08 14:41:43;;;;;;;1.15;0.90;;;;;;;;;;10152298;28;20086;-74
2023/08/08 14:46:35;;;;;;;4.18;1.30;;;;;;;;;;10145026;28;20575;-72
2023/08/08 14:51:28;;;;;;;4.03;0.90;;;;;;;;;;10145646;28;20446;-74
2023/08/08 14:56:20;;;;;;;6.53;0.90;;;;;;;;;;10161521;28;20064;-73
2023/08/08 15:01:12;;;;;;;1.08;0.90;;;;;;;;;;10153160;28;20081;-72
2023/08/08 15:06:04;;;;;;;3.45;1.17;;;;;;;;;;10172244;28;20036;-72
2023/08/08 15:10:56;;;;;;;3.08;0.70;;;;;;;;;;10145364;28;20098;-74
2023/08/08 15:15:48;;;;;;;2.42;1.30;;;;;;;;;;10168153;28;20411;-74
2023/08/08 15:20:40;;;;;;;4.13;1.50;;;;;;;;;;10174297;28;20044;-72
2023/08/08 15:25:32;;;;;;;2.70;1.70;;;;;;;;;;10152889;28;20064;-71
2023/08/08 15:30:24;;;;;;;4.82;1.35;;;;;;;;;;10181703;28;20063;-72
2023/08/08 15:35:16;;;;;;;3.55;1.83;;;;;;;;;;10156785;28;20083;-71
2023/08/08 15:40:08;;;;;;;7.10;2.38;;;;;;;;;;10181867;28;20131;-71
2023/08/08 15:45:01;;;;;;;2.40;1.20;;;;;;;;;;10174457;28;20048;-69
2023/08/08 15:49:53;;;;;;;7.68;1.95;;;;;;;;;;10149138;28;20048;-71
2023/08/08 15:54:45;;;;;;;3.78;1.70;;;;;;;;;;10166432;28;20060;-70
2023/08/08 15:59:41;;;;;;;6.32;1.48;;;;;;;;;;10169023;28;20055;-70
2023/08/08 16:04:33;;;;;;;3.03;1.10;;;;;;;;;;10154469;28;20049;-70
2023/08/08 16:09:25;;;;;;;6.00;1.05;;;;;;;;;;10140871;28;20072;-70
2023/08/08 16:14:17;;;;;;;4.40;1.02;;;;;;;;;;10163156;28;20075;-72
2023/08/08 16:19:09;;;;;;;0.90;0.70;;;;;;;;;;10166852;28;20040;-72
2023/08/08 16:24:01;;;;;;;3.83;0.90;;;;;;;;;;10165283;28;20501;-72
2023/08/08 16:28:53;;;;;;;3.88;0.95;;;;;;;;;;10147533;28;20044;-72
2023/08/08 16:33:45;;;;;;;5.20;1.85;;;;;;;;;;10164758;28;20079;-73
2023/08/08 16:38:37;;;;;;;1.58;0.90;;;;;;;;;;10152982;28;20079;-73
2023/08/08 16:43:31;;;;;;;3.85;0.77;;;;;;;;;;10155588;28;20040;-70
2023/08/08 16:48:23;;;;;;;6.20;1.65;;;;;;;;;;10155806;28;20123;-73
2023/08/08 16:53:16;;;;;;;1.35;0.90;;;;;;;;;;10161073;28;20040;-73
2023/08/08 16:58:08;;;;;;;7.57;1.55;;;;;;;;;;10156794;28;20051;-72
2023/08/08 17:03:00;;;;;;;4.82;0.90;;;;;;;;;;10165709;28;20066;-73
2023/08/08 17:07:52;;;;;;;1.15;0.90;;;;;;;;;;10163825;28;20067;-73
2023/08/08 17:12:44;;;;;;;3.25;1.00;;;;;;;;;;10173005;28;20551;-74
2023/08/08 17:17:36;;;;;;;3.25;1.02;;;;;;;;;;10174992;28;20105;-73
2023/08/08 17:22:27;;;;;;;3.63;1.33;;;;;;;;;;10170345;28;20048;-72
2023/08/08 17:27:19;;;;;;;5.95;1.42;;;;;;;;;;10179406;28;20351;-72
2023/08/08 17:32:13;;;;;;;2.80;1.45;;;;;;;;;;10163569;28;20522;-73
2023/08/08 17:37:05;;;;;;;1.27;1.15;;;;;;;;;;10170602;28;20063;-71
2023/08/08 17:41:57;;;;;;;1.15;0.93;;;;;;;;;;10151852;28;20413;-72
2023/08/08 17:46:49;;;;;;;3.65;1.30;;;;;;;;;;10147041;28;20061;-73
2023/08/08 17:51:41;;;;;;;1.15;0.80;;;;;;;;;;10150213;28;20131;-72
2023/08/08 17:56:33;;;;;;;5.20;1.52;;;;;;;;;;10151047;28;20106;-71
2023/08/08 18:01:24;;;;;;;5.57;1.30;;;;;;;;;;10149442;28;20040;-73
2023/08/08 18:06:16;;;;;;;3.65;1.13;;;;;;;;;;10148143;28;20055;-71
2023/08/08 18:11:10;;;;;;;4.82;1.13;;;;;;;;;;10147705;28;20151;-71
2023/08/08 18:16:03;;;;;;;5.25;1.70;;;;;;;;;;10146830;28;20055;-70
2023/08/08 18:20:55;;;;;;;1.85;0.80;;;;;;;;;;10148033;28;20390;-71
2023/08/08 18:25:48;;;;;;;8.70;1.25;;;;;;;;;;10147574;28;20072;-71
2023/08/08 18:30:40;;;;;;;3.70;1.60;;;;;;;;;;10156914;28;20044;-73
2023/08/08 18:35:32;;;;;;;2.83;1.15;;;;;;;;;;10146828;28;20131;-73
2023/08/08 18:40:24;;;;;;;3.50;1.27;;;;;;;;;;10150252;28;20040;-70
2023/08/08 18:45:16;;;;;;;2.75;1.00;;;;;;;;;;10149282;28;20139;-70
2023/08/08 18:50:08;;;;;;;1.60;1.48;;;;;;;;;;10168366;28;20046;-69
2023/08/08 18:55:00;;;;;;;2.33;1.50;;;;;;;;;;10157776;28;20040;-70
2023/08/08 18:59:52;;;;;;;1.05;0.95;;;;;;;;;;10164302;28;20079;-70
2023/08/08 19:04:44;;;;;;;3.30;1.17;;;;;;;;;;10153379;28;20338;-69
2023/08/08 19:09:36;;;;;;;5.63;1.05;;;;;;;;;;10151245;28;20063;-68
2023/08/08 19:14:28;;;;;;;3.75;1.25;;;;;;;;;;10140664;28;20040;-71
2023/08/08 19:19:21;;;;;;;12.35;1.70;;;;;;;;;;10163206;28;20127;-70
2023/08/08 19:24:12;;;;;;;1.20;1.10;;;;;;;;;;10156058;28;20151;-68
2023/08/08 19:29:04;;;;;;;2.45;1.27;;;;;;;;;;10151483;28;20098;-68
2023/08/08 19:33:56;;;;;;;1.88;1.35;;;;;;;;;;10145285;28;20097;-67
2023/08/08 19:38:58;;;;;;;4.07;1.40;;;;;;;;;;10178685;28;20044;-68
2023/08/08 19:43:50;;;;;;;4.72;1.77;;;;;;;;;;10189761;28;20607;-67
2023/08/08 19:48:43;;;;;;;2.03;1.35;;;;;;;;;;10191428;28;20047;-68
2023/08/08 19:53:35;;;;;;;7.43;1.50;;;;;;;;;;10191216;28;20119;-66
2023/08/08 19:58:27;;;;;;;1.48;1.20;;;;;;;;;;10195240;28;20058;-69
2023/08/08 20:03:19;;;;;;;4.75;1.60;;;;;;;;;;10192264;28;20070;-67
2023/08/08 20:08:12;;;;;;;4.00;1.67;;;;;;;;;;10198602;28;20150;-67
2023/08/08 20:13:04;;;;;;;3.60;1.88;;;;;;;;;;10191271;28;20127;-68
2023/08/08 20:17:56;;;;;;;2.58;1.38;;;;;;;;;;10158177;28;20049;-68
2023/08/08 20:22:48;;;;;;;3.33;1.35;;;;;;;;;;10168849;28;20091;-68
2023/08/08 20:27:40;;;;;;;3.55;1.20;;;;;;;;;;10167909;28;20052;-68
2023/08/08 20:32:31;;;;;;;1.48;1.30;;;;;;;;;;10141176;28;20393;-67
2023/08/08 20:37:23;;;;;;;2.85;1.33;;;;;;;;;;10146995;28;20055;-68
2023/08/08 20:42:15;;;;;;;2.08;1.23;;;;;;;;;;10156598;28;20483;-67
2023/08/08 20:47:07;;;;;;;3.97;1.60;;;;;;;;;;10144611;28;20044;-69
2023/08/08 20:51:59;;;;;;;3.55;1.30;;;;;;;;;;10147351;28;20119;-69
2023/08/08 20:56:58;;;;;;;2.25;1.60;;;;;;;;;;10150843;28;20147;-69
2023/08/08 21:01:51;;;;;;;2.25;2.05;;;;;;;;;;10149680;28;20132;-68
2023/08/08 21:06:43;;;;;;;1.48;1.17;;;;;;;;;;10153360;28;20070;-68
2023/08/08 21:11:36;;;;;;;2.75;1.33;;;;;;;;;;10153601;28;20063;-68
2023/08/08 21:16:28;;;;;;;2.85;1.42;;;;;;;;;;10151240;28;20098;-68
2023/08/08 21:21:20;;;;;;;2.95;1.30;;;;;;;;;;10152250;28;20066;-68
2023/08/08 21:26:12;;;;;;;1.10;1.00;;;;;;;;;;10157614;28;20048;-70
2023/08/08 21:31:07;;;;;;;14.63;1.88;;;;;;;;;;10159503;28;20127;-69
2023/08/08 21:35:59;;;;;;;3.95;1.50;;;;;;;;;;10155832;28;20126;-69
2023/08/08 21:40:51;;;;;;;5.22;1.50;;;;;;;;;;10173325;28;20615;-70
2023/08/08 21:45:42;;;;;;;5.13;1.63;;;;;;;;;;10173488;28;20076;-70
2023/08/08 21:50:34;;;;;;;5.35;1.83;;;;;;;;;;10149580;28;20546;-70
2023/08/08 21:55:26;;;;;;;3.08;1.45;;;;;;;;;;10159093;28;20052;-70
2023/08/08 22:00:19;;;;;;;4.82;2.10;;;;;;;;;;10148161;28;20079;-69
2023/08/08 22:05:11;;;;;;;2.05;1.50;;;;;;;;;;10182153;28;20147;-69
2023/08/08 22:10:04;;;;;;;1.90;1.55;;;;;;;;;;10167593;28;20425;-68
2023/08/08 22:14:56;;;;;;;3.50;1.60;;;;;;;;;;10171502;28;20047;-69
2023/08/08 22:19:48;;;;;;;1.83;1.70;;;;;;;;;;10149024;28;20374;-68
2023/08/08 22:24:39;;;;;;;1.40;1.30;;;;;;;;;;10166212;28;20466;-70
2023/08/08 22:29:31;;;;;;;2.13;1.38;;;;;;;;;;10136901;28;20041;-70
2023/08/08 22:34:23;;;;;;;1.98;1.50;;;;;;;;;;10152008;28;20051;-70
2023/08/08 22:39:15;;;;;;;4.13;1.27;;;;;;;;;;10179661;28;20031;-69
2023/08/08 22:44:07;;;;;;;1.58;1.20;;;;;;;;;;10183577;28;20048;-68
2023/08/08 22:48:59;;;;;;;2.05;1.60;;;;;;;;;;10156637;28;20056;-68
2023/08/08 22:53:51;;;;;;;4.75;1.20;;;;;;;;;;10145374;28;20076;-70
2023/08/08 22:58:43;;;;;;;3.15;1.42;;;;;;;;;;10146575;28;20036;-69
2023/08/08 23:03:36;;;;;;;1.63;1.23;;;;;;;;;;10146998;28;20037;-69
2023/08/08 23:08:29;;;;;;;2.63;1.30;;;;;;;;;;10182919;28;20044;-70
2023/08/08 23:13:21;;;;;;;2.72;1.10;;;;;;;;;;10158572;28;20068;-70
2023/08/08 23:18:13;;;;;;;1.75;1.05;;;;;;;;;;10143865;28;20462;-68
2023/08/08 23:23:05;;;;;;;3.80;1.35;;;;;;;;;;10145177;28;20044;-70
2023/08/08 23:27:57;;;;;;;5.35;1.63;;;;;;;;;;10143975;28;20051;-70
2023/08/08 23:32:49;;;;;;;2.05;1.50;;;;;;;;;;10147728;28;20072;-67
2023/08/08 23:37:45;;;;;;;2.78;1.25;;;;;;;;;;10180262;28;20044;-68
2023/08/08 23:42:37;;;;;;;2.70;1.60;;;;;;;;;;10176315;28;20056;-69
2023/08/08 23:47:29;;;;;;;4.97;1.55;;;;;;;;;;10182101;28;20040;-70
2023/08/08 23:52:21;;;;;;;1.77;1.60;;;;;;;;;;10176099;28;20698;-68
2023/08/08 23:57:13;;;;;;;3.80;1.50;;;;;;;;;;10142485;28;20044;-67
